sensor_id;sensor_type;location;lat;lon;timestamp;P1;durP1;ratioP1;P2;durP2;ratioP2
18176;SDS011;9213;50.858;3.964;2022-10-16T00:00:37;1.43;;;1.33;;
18176;SDS011;9213;50.858;3.964;2022-10-16T00:03:06;1.40;;;1.30;;
18176;SDS011;9213;50.858;3.964;2022-10-16T00:05:37;2.47;;;1.30;;
18176;SDS011;9213;50.858;3.964;2022-10-16T00:08:06;5.93;;;1.50;;
18176;SDS011;9213;50.858;3.964;2022-10-16T00:10:33;4.40;;;1.60;;
18176;SDS011;9213;50.858;3.964;2022-10-16T00:13:00;1.37;;;1.27;;
18176;SDS011;9213;50.858;3.964;2022-10-16T00:15:27;3.10;;;1.40;;
18176;SDS011;9213;50.858;3.964;2022-10-16T00:17:55;3.73;;;1.47;;
18176;SDS011;9213;50.858;3.964;2022-10-16T00:20:22;1.93;;;1.50;;
18176;SDS011;9213;50.858;3.964;2022-10-16T00:22:49;3.37;;;2.20;;
18176;SDS011;9213;50.858;3.964;2022-10-16T00:25:15;1.60;;;1.50;;
18176;SDS011;9213;50.858;3.964;2022-10-16T00:27:42;1.83;;;1.37;;
18176;SDS011;9213;50.858;3.964;2022-10-16T00:30:09;1.67;;;1.50;;
18176;SDS011;9213;50.858;3.964;2022-10-16T00:32:36;3.50;;;1.53;;
18176;SDS011;9213;50.858;3.964;2022-10-16T00:35:05;2.93;;;1.60;;
18176;SDS011;9213;50.858;3.964;2022-10-16T00:37:32;3.10;;;1.90;;
18176;SDS011;9213;50.858;3.964;2022-10-16T00:39:59;1.70;;;1.60;;
18176;SDS011;9213;50.858;3.964;2022-10-16T00:42:26;3.77;;;1.60;;
18176;SDS011;9213;50.858;3.964;2022-10-16T00:44:53;3.53;;;1.43;;
18176;SDS011;9213;50.858;3.964;2022-10-16T00:47:22;2.67;;;1.60;;
18176;SDS011;9213;50.858;3.964;2022-10-16T00:49:53;2.27;;;1.20;;
18176;SDS011;9213;50.858;3.964;2022-10-16T00:52:26;2.60;;;1.50;;
18176;SDS011;9213;50.858;3.964;2022-10-16T00:54:53;2.00;;;1.70;;
18176;SDS011;9213;50.858;3.964;2022-10-16T00:57:21;2.50;;;1.70;;
18176;SDS011;9213;50.858;3.964;2022-10-16T00:59:48;4.23;;;2.10;;
18176;SDS011;9213;50.858;3.964;2022-10-16T01:02:15;2.20;;;2.00;;
18176;SDS011;9213;50.858;3.964;2022-10-16T01:04:43;3.10;;;2.37;;
18176;SDS011;9213;50.858;3.964;2022-10-16T01:07:14;1.93;;;1.67;;
18176;SDS011;9213;50.858;3.964;2022-10-16T01:09:57;6.53;;;2.27;;
18176;SDS011;9213;50.858;3.964;2022-10-16T01:12:33;3.07;;;1.90;;
18176;SDS011;9213;50.858;3.964;2022-10-16T01:15:08;2.00;;;1.70;;
18176;SDS011;9213;50.858;3.964;2022-10-16T01:17:41;2.67;;;1.90;;
18176;SDS011;9213;50.858;3.964;2022-10-16T01:20:14;2.13;;;1.70;;
18176;SDS011;9213;50.858;3.964;2022-10-16T01:22:55;4.83;;;2.10;;
18176;SDS011;9213;50.858;3.964;2022-10-16T01:28:41;2.10;;;1.90;;
18176;SDS011;9213;50.858;3.964;2022-10-16T01:31:15;7.00;;;2.10;;
18176;SDS011;9213;50.858;3.964;2022-10-16T01:33:45;6.03;;;2.30;;
18176;SDS011;9213;50.858;3.964;2022-10-16T01:36:15;4.23;;;2.40;;
18176;SDS011;9213;50.858;3.964;2022-10-16T01:38:46;3.93;;;2.20;;
18176;SDS011;9213;50.858;3.964;2022-10-16T01:41:18;4.87;;;2.40;;
18176;SDS011;9213;50.858;3.964;2022-10-16T01:43:53;2.43;;;2.10;;
18176;SDS011;9213;50.858;3.964;2022-10-16T01:46:24;7.13;;;2.20;;
18176;SDS011;9213;50.858;3.964;2022-10-16T01:48:52;2.40;;;2.20;;
18176;SDS011;9213;50.858;3.964;2022-10-16T01:51:21;4.77;;;2.40;;
18176;SDS011;9213;50.858;3.964;2022-10-16T01:53:49;7.77;;;2.60;;
18176;SDS011;9213;50.858;3.964;2022-10-16T01:56:20;6.53;;;2.70;;
18176;SDS011;9213;50.858;3.964;2022-10-16T01:58:49;9.10;;;2.87;;
18176;SDS011;9213;50.858;3.964;2022-10-16T02:01:20;5.63;;;2.50;;
18176;SDS011;9213;50.858;3.964;2022-10-16T02:03:49;9.00;;;3.60;;
18176;SDS011;9213;50.858;3.964;2022-10-16T02:06:20;4.80;;;2.37;;
18176;SDS011;9213;50.858;3.964;2022-10-16T02:08:47;4.60;;;2.70;;
18176;SDS011;9213;50.858;3.964;2022-10-16T02:11:14;2.77;;;2.37;;
18176;SDS011;9213;50.858;3.964;2022-10-16T02:13:42;3.73;;;2.77;;
18176;SDS011;9213;50.858;3.964;2022-10-16T02:16:13;4.13;;;2.80;;
18176;SDS011;9213;50.858;3.964;2022-10-16T02:18:41;5.97;;;2.80;;
18176;SDS011;9213;50.858;3.964;2022-10-16T02:21:11;5.00;;;2.60;;
18176;SDS011;9213;50.858;3.964;2022-10-16T02:23:43;5.33;;;2.90;;
18176;SDS011;9213;50.858;3.964;2022-10-16T02:26:19;13.63;;;2.93;;
18176;SDS011;9213;50.858;3.964;2022-10-16T02:28:55;4.27;;;3.00;;
18176;SDS011;9213;50.858;3.964;2022-10-16T02:31:28;3.93;;;2.40;;
18176;SDS011;9213;50.858;3.964;2022-10-16T02:34:00;6.47;;;2.70;;
18176;SDS011;9213;50.858;3.964;2022-10-16T02:36:30;7.67;;;2.70;;
18176;SDS011;9213;50.858;3.964;2022-10-16T02:38:58;5.70;;;2.87;;
18176;SDS011;9213;50.858;3.964;2022-10-16T02:41:26;4.70;;;2.90;;
18176;SDS011;9213;50.858;3.964;2022-10-16T02:43:53;2.93;;;2.63;;
18176;SDS011;9213;50.858;3.964;2022-10-16T02:46:20;8.37;;;2.90;;
18176;SDS011;9213;50.858;3.964;2022-10-16T02:48:49;4.97;;;2.80;;
18176;SDS011;9213;50.858;3.964;2022-10-16T02:51:16;6.40;;;3.13;;
18176;SDS011;9213;50.858;3.964;2022-10-16T02:53:43;3.43;;;2.87;;
18176;SDS011;9213;50.858;3.964;2022-10-16T02:56:10;3.57;;;2.93;;
18176;SDS011;9213;50.858;3.964;2022-10-16T02:58:37;5.67;;;3.33;;
18176;SDS011;9213;50.858;3.964;2022-10-16T03:01:04;3.47;;;2.97;;
18176;SDS011;9213;50.858;3.964;2022-10-16T03:03:31;4.87;;;3.30;;
18176;SDS011;9213;50.858;3.964;2022-10-16T03:05:59;5.90;;;2.70;;
18176;SDS011;9213;50.858;3.964;2022-10-16T03:08:26;3.67;;;3.03;;
18176;SDS011;9213;50.858;3.964;2022-10-16T03:10:52;4.93;;;3.13;;
18176;SDS011;9213;50.858;3.964;2022-10-16T03:13:19;3.80;;;3.40;;
18176;SDS011;9213;50.858;3.964;2022-10-16T03:15:46;7.00;;;3.30;;
18176;SDS011;9213;50.858;3.964;2022-10-16T03:18:13;4.40;;;3.43;;
18176;SDS011;9213;50.858;3.964;2022-10-16T03:20:41;3.70;;;3.27;;
18176;SDS011;9213;50.858;3.964;2022-10-16T03:23:10;3.90;;;3.50;;
18176;SDS011;9213;50.858;3.964;2022-10-16T03:25:37;5.50;;;3.10;;
18176;SDS011;9213;50.858;3.964;2022-10-16T03:28:04;6.90;;;3.83;;
18176;SDS011;9213;50.858;3.964;2022-10-16T03:30:31;8.50;;;3.40;;
18176;SDS011;9213;50.858;3.964;2022-10-16T03:32:58;8.07;;;3.37;;
18176;SDS011;9213;50.858;3.964;2022-10-16T03:35:25;6.90;;;3.60;;
18176;SDS011;9213;50.858;3.964;2022-10-16T03:37:52;4.30;;;3.20;;
18176;SDS011;9213;50.858;3.964;2022-10-16T03:40:20;4.70;;;3.10;;
18176;SDS011;9213;50.858;3.964;2022-10-16T03:42:47;5.30;;;3.13;;
18176;SDS011;9213;50.858;3.964;2022-10-16T03:45:14;6.77;;;3.67;;
18176;SDS011;9213;50.858;3.964;2022-10-16T03:47:40;4.57;;;3.83;;
18176;SDS011;9213;50.858;3.964;2022-10-16T03:50:07;4.27;;;3.43;;
18176;SDS011;9213;50.858;3.964;2022-10-16T03:52:34;5.03;;;3.87;;
18176;SDS011;9213;50.858;3.964;2022-10-16T03:55:01;7.53;;;3.83;;
18176;SDS011;9213;50.858;3.964;2022-10-16T03:57:30;4.27;;;3.87;;
18176;SDS011;9213;50.858;3.964;2022-10-16T03:59:56;6.87;;;3.87;;
18176;SDS011;9213;50.858;3.964;2022-10-16T04:02:23;8.03;;;3.60;;
18176;SDS011;9213;50.858;3.964;2022-10-16T04:04:50;6.40;;;3.90;;
18176;SDS011;9213;50.858;3.964;2022-10-16T04:07:17;5.50;;;3.97;;
18176;SDS011;9213;50.858;3.964;2022-10-16T04:09:44;8.07;;;4.23;;
18176;SDS011;9213;50.858;3.964;2022-10-16T04:12:11;4.90;;;4.07;;
18176;SDS011;9213;50.858;3.964;2022-10-16T04:14:39;6.63;;;3.57;;
18176;SDS011;9213;50.858;3.964;2022-10-16T04:17:06;6.07;;;3.20;;
18176;SDS011;9213;50.858;3.964;2022-10-16T04:19:33;4.50;;;3.80;;
18176;SDS011;9213;50.858;3.964;2022-10-16T04:22:00;6.17;;;4.00;;
18176;SDS011;9213;50.858;3.964;2022-10-16T04:24:26;5.47;;;3.80;;
18176;SDS011;9213;50.858;3.964;2022-10-16T04:26:53;5.17;;;3.33;;
18176;SDS011;9213;50.858;3.964;2022-10-16T04:29:20;9.70;;;4.10;;
18176;SDS011;9213;50.858;3.964;2022-10-16T04:31:48;5.77;;;3.60;;
18176;SDS011;9213;50.858;3.964;2022-10-16T04:34:15;6.40;;;4.20;;
18176;SDS011;9213;50.858;3.964;2022-10-16T04:36:42;8.70;;;3.83;;
18176;SDS011;9213;50.858;3.964;2022-10-16T04:39:09;5.80;;;3.53;;
18176;SDS011;9213;50.858;3.964;2022-10-16T04:41:36;6.17;;;3.43;;
18176;SDS011;9213;50.858;3.964;2022-10-16T04:44:02;4.63;;;3.80;;
18176;SDS011;9213;50.858;3.964;2022-10-16T04:46:29;5.93;;;3.30;;
18176;SDS011;9213;50.858;3.964;2022-10-16T04:48:58;6.70;;;3.40;;
18176;SDS011;9213;50.858;3.964;2022-10-16T04:51:25;7.47;;;3.27;;
18176;SDS011;9213;50.858;3.964;2022-10-16T04:53:52;4.57;;;3.70;;
18176;SDS011;9213;50.858;3.964;2022-10-16T04:56:20;4.07;;;3.63;;
18176;SDS011;9213;50.858;3.964;2022-10-16T04:58:47;5.23;;;3.40;;
18176;SDS011;9213;50.858;3.964;2022-10-16T05:01:14;5.70;;;3.80;;
18176;SDS011;9213;50.858;3.964;2022-10-16T05:03:41;7.13;;;3.67;;
18176;SDS011;9213;50.858;3.964;2022-10-16T05:06:09;6.80;;;3.30;;
18176;SDS011;9213;50.858;3.964;2022-10-16T05:08:36;4.93;;;3.20;;
18176;SDS011;9213;50.858;3.964;2022-10-16T05:11:03;5.40;;;3.13;;
18176;SDS011;9213;50.858;3.964;2022-10-16T05:13:30;8.97;;;4.80;;
18176;SDS011;9213;50.858;3.964;2022-10-16T05:15:57;4.77;;;3.27;;
18176;SDS011;9213;50.858;3.964;2022-10-16T05:18:24;6.80;;;3.47;;
18176;SDS011;9213;50.858;3.964;2022-10-16T05:20:51;3.77;;;3.40;;
18176;SDS011;9213;50.858;3.964;2022-10-16T05:23:19;5.00;;;3.50;;
18176;SDS011;9213;50.858;3.964;2022-10-16T05:25:51;9.50;;;3.43;;
18176;SDS011;9213;50.858;3.964;2022-10-16T05:28:19;9.40;;;3.87;;
18176;SDS011;9213;50.858;3.964;2022-10-16T05:30:46;7.27;;;3.40;;
18176;SDS011;9213;50.858;3.964;2022-10-16T05:33:13;5.43;;;3.20;;
18176;SDS011;9213;50.858;3.964;2022-10-16T05:35:40;8.03;;;3.77;;
18176;SDS011;9213;50.858;3.964;2022-10-16T05:38:07;8.20;;;4.40;;
18176;SDS011;9213;50.858;3.964;2022-10-16T05:40:35;6.03;;;4.30;;
18176;SDS011;9213;50.858;3.964;2022-10-16T05:43:02;9.37;;;4.30;;
18176;SDS011;9213;50.858;3.964;2022-10-16T05:45:28;10.60;;;4.40;;
18176;SDS011;9213;50.858;3.964;2022-10-16T05:47:55;6.27;;;3.90;;
18176;SDS011;9213;50.858;3.964;2022-10-16T05:50:22;5.77;;;3.67;;
18176;SDS011;9213;50.858;3.964;2022-10-16T05:52:49;6.60;;;4.30;;
18176;SDS011;9213;50.858;3.964;2022-10-16T05:55:16;6.57;;;5.47;;
18176;SDS011;9213;50.858;3.964;2022-10-16T05:57:44;8.87;;;4.10;;
18176;SDS011;9213;50.858;3.964;2022-10-16T06:00:11;8.77;;;4.40;;
18176;SDS011;9213;50.858;3.964;2022-10-16T06:02:38;7.93;;;4.13;;
18176;SDS011;9213;50.858;3.964;2022-10-16T06:05:05;6.57;;;4.23;;
18176;SDS011;9213;50.858;3.964;2022-10-16T06:07:33;7.33;;;4.17;;
18176;SDS011;9213;50.858;3.964;2022-10-16T06:10:01;5.90;;;4.43;;
18176;SDS011;9213;50.858;3.964;2022-10-16T06:12:28;8.23;;;4.30;;
18176;SDS011;9213;50.858;3.964;2022-10-16T06:14:57;7.70;;;3.80;;
18176;SDS011;9213;50.858;3.964;2022-10-16T06:17:23;4.97;;;3.93;;
18176;SDS011;9213;50.858;3.964;2022-10-16T06:19:50;4.37;;;3.67;;
18176;SDS011;9213;50.858;3.964;2022-10-16T06:22:17;9.00;;;3.80;;
18176;SDS011;9213;50.858;3.964;2022-10-16T06:24:44;6.60;;;3.77;;
18176;SDS011;9213;50.858;3.964;2022-10-16T06:27:12;9.17;;;3.97;;
18176;SDS011;9213;50.858;3.964;2022-10-16T06:29:39;11.47;;;3.93;;
18176;SDS011;9213;50.858;3.964;2022-10-16T06:32:09;7.00;;;3.70;;
18176;SDS011;9213;50.858;3.964;2022-10-16T06:34:36;5.33;;;4.07;;
18176;SDS011;9213;50.858;3.964;2022-10-16T06:37:05;8.97;;;4.40;;
18176;SDS011;9213;50.858;3.964;2022-10-16T06:39:31;12.23;;;4.43;;
18176;SDS011;9213;50.858;3.964;2022-10-16T06:41:58;11.63;;;4.00;;
18176;SDS011;9213;50.858;3.964;2022-10-16T06:44:25;7.97;;;4.27;;
18176;SDS011;9213;50.858;3.964;2022-10-16T06:46:52;9.10;;;4.40;;
18176;SDS011;9213;50.858;3.964;2022-10-16T06:49:20;9.70;;;4.23;;
18176;SDS011;9213;50.858;3.964;2022-10-16T06:51:48;9.10;;;4.93;;
18176;SDS011;9213;50.858;3.964;2022-10-16T06:54:15;8.27;;;4.80;;
18176;SDS011;9213;50.858;3.964;2022-10-16T06:56:42;9.17;;;4.77;;
18176;SDS011;9213;50.858;3.964;2022-10-16T06:59:09;10.10;;;4.83;;
18176;SDS011;9213;50.858;3.964;2022-10-16T07:01:36;7.67;;;4.50;;
18176;SDS011;9213;50.858;3.964;2022-10-16T07:04:03;7.83;;;4.27;;
18176;SDS011;9213;50.858;3.964;2022-10-16T07:06:32;7.37;;;4.00;;
18176;SDS011;9213;50.858;3.964;2022-10-16T07:09:04;8.03;;;4.10;;
18176;SDS011;9213;50.858;3.964;2022-10-16T07:11:32;9.57;;;4.40;;
18176;SDS011;9213;50.858;3.964;2022-10-16T07:13:59;4.93;;;3.93;;
18176;SDS011;9213;50.858;3.964;2022-10-16T07:16:27;6.70;;;3.93;;
18176;SDS011;9213;50.858;3.964;2022-10-16T07:18:55;10.60;;;4.57;;
18176;SDS011;9213;50.858;3.964;2022-10-16T07:21:24;7.80;;;4.00;;
18176;SDS011;9213;50.858;3.964;2022-10-16T07:23:53;10.83;;;4.37;;
18176;SDS011;9213;50.858;3.964;2022-10-16T07:26:20;6.47;;;3.40;;
18176;SDS011;9213;50.858;3.964;2022-10-16T07:28:48;7.87;;;3.40;;
18176;SDS011;9213;50.858;3.964;2022-10-16T07:31:16;6.07;;;3.50;;
18176;SDS011;9213;50.858;3.964;2022-10-16T07:33:44;7.57;;;4.03;;
18176;SDS011;9213;50.858;3.964;2022-10-16T07:36:13;6.20;;;3.17;;
18176;SDS011;9213;50.858;3.964;2022-10-16T07:38:40;6.33;;;3.57;;
18176;SDS011;9213;50.858;3.964;2022-10-16T07:41:10;7.73;;;3.20;;
18176;SDS011;9213;50.858;3.964;2022-10-16T07:43:38;5.80;;;2.90;;
18176;SDS011;9213;50.858;3.964;2022-10-16T07:46:06;6.37;;;2.70;;
18176;SDS011;9213;50.858;3.964;2022-10-16T07:48:33;8.97;;;2.93;;
18176;SDS011;9213;50.858;3.964;2022-10-16T07:51:01;5.80;;;2.70;;
18176;SDS011;9213;50.858;3.964;2022-10-16T07:53:29;5.90;;;3.30;;
18176;SDS011;9213;50.858;3.964;2022-10-16T07:55:57;6.43;;;2.60;;
18176;SDS011;9213;50.858;3.964;2022-10-16T07:58:26;6.67;;;2.50;;
18176;SDS011;9213;50.858;3.964;2022-10-16T08:00:53;2.47;;;2.27;;
18176;SDS011;9213;50.858;3.964;2022-10-16T08:03:20;5.77;;;2.13;;
18176;SDS011;9213;50.858;3.964;2022-10-16T08:05:46;3.53;;;2.40;;
18176;SDS011;9213;50.858;3.964;2022-10-16T08:08:14;5.07;;;2.30;;
18176;SDS011;9213;50.858;3.964;2022-10-16T08:10:42;5.57;;;2.50;;
18176;SDS011;9213;50.858;3.964;2022-10-16T08:13:09;6.07;;;2.40;;
18176;SDS011;9213;50.858;3.964;2022-10-16T08:15:37;4.70;;;1.90;;
18176;SDS011;9213;50.858;3.964;2022-10-16T08:18:04;4.43;;;2.07;;
18176;SDS011;9213;50.858;3.964;2022-10-16T08:20:31;5.60;;;2.47;;
18176;SDS011;9213;50.858;3.964;2022-10-16T08:22:59;3.10;;;1.90;;
18176;SDS011;9213;50.858;3.964;2022-10-16T08:25:26;4.63;;;2.40;;
18176;SDS011;9213;50.858;3.964;2022-10-16T08:27:53;4.23;;;2.00;;
18176;SDS011;9213;50.858;3.964;2022-10-16T08:30:21;6.60;;;1.93;;
18176;SDS011;9213;50.858;3.964;2022-10-16T08:32:50;4.63;;;2.27;;
18176;SDS011;9213;50.858;3.964;2022-10-16T08:35:18;5.00;;;2.13;;
18176;SDS011;9213;50.858;3.964;2022-10-16T08:37:44;4.67;;;2.30;;
18176;SDS011;9213;50.858;3.964;2022-10-16T08:40:15;7.13;;;2.07;;
18176;SDS011;9213;50.858;3.964;2022-10-16T08:42:48;4.57;;;2.00;;
18176;SDS011;9213;50.858;3.964;2022-10-16T08:45:33;5.27;;;1.87;;
18176;SDS011;9213;50.858;3.964;2022-10-16T08:48:14;3.40;;;1.77;;
18176;SDS011;9213;50.858;3.964;2022-10-16T08:50:46;3.53;;;2.10;;
18176;SDS011;9213;50.858;3.964;2022-10-16T08:53:15;4.20;;;1.90;;
18176;SDS011;9213;50.858;3.964;2022-10-16T08:55:49;6.13;;;1.90;;
18176;SDS011;9213;50.858;3.964;2022-10-16T08:58:18;5.77;;;1.90;;
18176;SDS011;9213;50.858;3.964;2022-10-16T09:00:48;3.90;;;2.00;;
18176;SDS011;9213;50.858;3.964;2022-10-16T09:03:21;4.90;;;1.83;;
18176;SDS011;9213;50.858;3.964;2022-10-16T09:06:07;6.93;;;1.90;;
18176;SDS011;9213;50.858;3.964;2022-10-16T09:08:47;7.60;;;2.47;;
18176;SDS011;9213;50.858;3.964;2022-10-16T09:11:27;3.93;;;1.70;;
18176;SDS011;9213;50.858;3.964;2022-10-16T09:14:12;3.97;;;1.80;;
18176;SDS011;9213;50.858;3.964;2022-10-16T09:16:51;3.50;;;1.73;;
18176;SDS011;9213;50.858;3.964;2022-10-16T09:19:27;5.32;;;1.88;;
18176;SDS011;9213;50.858;3.964;2022-10-16T09:21:59;8.45;;;2.78;;
18176;SDS011;9213;50.858;3.964;2022-10-16T09:24:36;2.95;;;1.80;;
18176;SDS011;9213;50.858;3.964;2022-10-16T09:27:03;7.30;;;1.90;;
18176;SDS011;9213;50.858;3.964;2022-10-16T09:29:29;4.22;;;1.63;;
18176;SDS011;9213;50.858;3.964;2022-10-16T09:31:57;4.22;;;1.88;;
18176;SDS011;9213;50.858;3.964;2022-10-16T09:34:39;4.20;;;1.40;;
18176;SDS011;9213;50.858;3.964;2022-10-16T09:37:10;4.90;;;1.65;;
18176;SDS011;9213;50.858;3.964;2022-10-16T09:39:44;4.93;;;1.85;;
18176;SDS011;9213;50.858;3.964;2022-10-16T09:42:11;8.40;;;2.05;;
18176;SDS011;9213;50.858;3.964;2022-10-16T09:44:41;5.00;;;1.60;;
18176;SDS011;9213;50.858;3.964;2022-10-16T09:47:12;5.53;;;1.77;;
18176;SDS011;9213;50.858;3.964;2022-10-16T09:49:51;6.35;;;2.30;;
18176;SDS011;9213;50.858;3.964;2022-10-16T09:52:19;3.38;;;1.45;;
18176;SDS011;9213;50.858;3.964;2022-10-16T09:54:50;5.05;;;1.92;;
18176;SDS011;9213;50.858;3.964;2022-10-16T09:57:18;3.83;;;1.80;;
18176;SDS011;9213;50.858;3.964;2022-10-16T09:59:46;4.70;;;2.20;;
18176;SDS011;9213;50.858;3.964;2022-10-16T10:02:14;4.13;;;1.58;;
18176;SDS011;9213;50.858;3.964;2022-10-16T10:04:44;6.65;;;1.63;;
18176;SDS011;9213;50.858;3.964;2022-10-16T10:07:18;8.57;;;2.17;;
18176;SDS011;9213;50.858;3.964;2022-10-16T10:09:51;6.43;;;1.73;;
18176;SDS011;9213;50.858;3.964;2022-10-16T10:12:19;5.72;;;1.70;;
18176;SDS011;9213;50.858;3.964;2022-10-16T10:14:48;9.20;;;1.92;;
18176;SDS011;9213;50.858;3.964;2022-10-16T10:17:17;2.83;;;1.42;;
18176;SDS011;9213;50.858;3.964;2022-10-16T10:19:46;5.57;;;1.67;;
18176;SDS011;9213;50.858;3.964;2022-10-16T10:22:21;7.75;;;1.80;;
18176;SDS011;9213;50.858;3.964;2022-10-16T10:24:57;6.07;;;1.85;;
18176;SDS011;9213;50.858;3.964;2022-10-16T10:27:48;6.20;;;1.98;;
18176;SDS011;9213;50.858;3.964;2022-10-16T10:30:26;5.30;;;1.67;;
18176;SDS011;9213;50.858;3.964;2022-10-16T10:33:12;3.05;;;1.50;;
18176;SDS011;9213;50.858;3.964;2022-10-16T10:35:48;2.85;;;1.10;;
18176;SDS011;9213;50.858;3.964;2022-10-16T10:38:28;3.75;;;1.50;;
18176;SDS011;9213;50.858;3.964;2022-10-16T10:41:08;3.60;;;1.48;;
18176;SDS011;9213;50.858;3.964;2022-10-16T10:43:50;4.50;;;1.20;;
18176;SDS011;9213;50.858;3.964;2022-10-16T10:46:29;5.50;;;1.52;;
18176;SDS011;9213;50.858;3.964;2022-10-16T10:49:10;7.40;;;1.70;;
18176;SDS011;9213;50.858;3.964;2022-10-16T10:51:48;3.00;;;1.60;;
18176;SDS011;9213;50.858;3.964;2022-10-16T10:54:24;6.65;;;1.83;;
18176;SDS011;9213;50.858;3.964;2022-10-16T10:57:00;4.38;;;1.45;;
18176;SDS011;9213;50.858;3.964;2022-10-16T10:59:45;4.53;;;1.40;;
18176;SDS011;9213;50.858;3.964;2022-10-16T11:02:21;4.25;;;1.75;;
18176;SDS011;9213;50.858;3.964;2022-10-16T11:07:47;2.78;;;1.20;;
18176;SDS011;9213;50.858;3.964;2022-10-16T11:10:18;4.13;;;1.48;;
18176;SDS011;9213;50.858;3.964;2022-10-16T11:12:48;6.95;;;1.70;;
18176;SDS011;9213;50.858;3.964;2022-10-16T11:15:19;7.68;;;1.63;;
18176;SDS011;9213;50.858;3.964;2022-10-16T11:17:50;4.13;;;1.95;;
18176;SDS011;9213;50.858;3.964;2022-10-16T11:20:22;9.40;;;2.53;;
18176;SDS011;9213;50.858;3.964;2022-10-16T11:22:51;5.82;;;1.80;;
18176;SDS011;9213;50.858;3.964;2022-10-16T11:25:23;3.20;;;1.25;;
18176;SDS011;9213;50.858;3.964;2022-10-16T11:27:54;7.53;;;2.05;;
18176;SDS011;9213;50.858;3.964;2022-10-16T11:30:27;6.28;;;1.48;;
18176;SDS011;9213;50.858;3.964;2022-10-16T11:35:51;6.75;;;1.95;;
18176;SDS011;9213;50.858;3.964;2022-10-16T11:38:25;5.00;;;1.58;;
18176;SDS011;9213;50.858;3.964;2022-10-16T11:41:00;5.18;;;1.70;;
18176;SDS011;9213;50.858;3.964;2022-10-16T11:43:32;6.00;;;1.40;;
18176;SDS011;9213;50.858;3.964;2022-10-16T11:46:04;3.65;;;1.40;;
18176;SDS011;9213;50.858;3.964;2022-10-16T11:48:38;3.38;;;1.30;;
18176;SDS011;9213;50.858;3.964;2022-10-16T11:51:14;2.80;;;1.30;;
18176;SDS011;9213;50.858;3.964;2022-10-16T11:53:49;4.57;;;1.50;;
18176;SDS011;9213;50.858;3.964;2022-10-16T11:56:21;4.28;;;1.35;;
18176;SDS011;9213;50.858;3.964;2022-10-16T11:58:51;5.68;;;1.58;;
18176;SDS011;9213;50.858;3.964;2022-10-16T12:01:24;3.55;;;1.20;;
18176;SDS011;9213;50.858;3.964;2022-10-16T12:03:59;6.45;;;1.58;;
18176;SDS011;9213;50.858;3.964;2022-10-16T12:06:33;3.80;;;1.13;;
18176;SDS011;9213;50.858;3.964;2022-10-16T12:09:03;2.60;;;1.25;;
18176;SDS011;9213;50.858;3.964;2022-10-16T12:11:33;3.47;;;1.10;;
18176;SDS011;9213;50.858;3.964;2022-10-16T12:17:01;3.65;;;1.13;;
18176;SDS011;9213;50.858;3.964;2022-10-16T12:19:30;4.57;;;1.20;;
18176;SDS011;9213;50.858;3.964;2022-10-16T12:21:59;3.15;;;1.20;;
18176;SDS011;9213;50.858;3.964;2022-10-16T12:24:31;4.10;;;1.42;;
18176;SDS011;9213;50.858;3.964;2022-10-16T12:27:02;3.92;;;1.50;;
18176;SDS011;9213;50.858;3.964;2022-10-16T12:29:34;2.00;;;1.20;;
18176;SDS011;9213;50.858;3.964;2022-10-16T12:32:04;4.53;;;1.17;;
18176;SDS011;9213;50.858;3.964;2022-10-16T12:34:36;2.75;;;1.20;;
18176;SDS011;9213;50.858;3.964;2022-10-16T12:37:10;4.30;;;1.10;;
18176;SDS011;9213;50.858;3.964;2022-10-16T12:39:40;2.42;;;1.10;;
18176;SDS011;9213;50.858;3.964;2022-10-16T12:42:20;5.03;;;1.38;;
18176;SDS011;9213;50.858;3.964;2022-10-16T12:44:49;3.28;;;1.05;;
18176;SDS011;9213;50.858;3.964;2022-10-16T12:47:20;6.35;;;1.13;;
18176;SDS011;9213;50.858;3.964;2022-10-16T12:49:49;2.25;;;1.10;;
18176;SDS011;9213;50.858;3.964;2022-10-16T12:52:25;3.72;;;1.00;;
18176;SDS011;9213;50.858;3.964;2022-10-16T12:54:55;1.42;;;0.98;;
18176;SDS011;9213;50.858;3.964;2022-10-16T12:57:39;2.10;;;1.10;;
18176;SDS011;9213;50.858;3.964;2022-10-16T13:00:18;2.72;;;1.10;;
18176;SDS011;9213;50.858;3.964;2022-10-16T13:06:12;2.13;;;1.20;;
18176;SDS011;9213;50.858;3.964;2022-10-16T13:08:53;4.65;;;1.25;;
18176;SDS011;9213;50.858;3.964;2022-10-16T13:11:38;1.73;;;1.08;;
18176;SDS011;9213;50.858;3.964;2022-10-16T13:14:31;1.52;;;0.88;;
18176;SDS011;9213;50.858;3.964;2022-10-16T13:17:10;2.15;;;0.90;;
18176;SDS011;9213;50.858;3.964;2022-10-16T13:19:45;1.83;;;0.73;;
18176;SDS011;9213;50.858;3.964;2022-10-16T13:22:22;3.53;;;1.10;;
18176;SDS011;9213;50.858;3.964;2022-10-16T13:24:57;1.45;;;1.00;;
18176;SDS011;9213;50.858;3.964;2022-10-16T13:27:38;4.20;;;0.88;;
18176;SDS011;9213;50.858;3.964;2022-10-16T13:30:14;5.25;;;1.58;;
18176;SDS011;9213;50.858;3.964;2022-10-16T13:32:44;4.55;;;1.00;;
18176;SDS011;9213;50.858;3.964;2022-10-16T13:35:20;1.02;;;0.80;;
18176;SDS011;9213;50.858;3.964;2022-10-16T13:37:49;2.15;;;0.90;;
18176;SDS011;9213;50.858;3.964;2022-10-16T13:40:19;1.52;;;1.00;;
18176;SDS011;9213;50.858;3.964;2022-10-16T13:42:47;2.15;;;0.90;;
18176;SDS011;9213;50.858;3.964;2022-10-16T13:45:20;2.95;;;1.10;;
18176;SDS011;9213;50.858;3.964;2022-10-16T13:47:47;0.95;;;0.80;;
18176;SDS011;9213;50.858;3.964;2022-10-16T13:50:15;3.20;;;0.90;;
18176;SDS011;9213;50.858;3.964;2022-10-16T13:52:43;4.40;;;1.10;;
18176;SDS011;9213;50.858;3.964;2022-10-16T13:55:11;2.80;;;0.93;;
18176;SDS011;9213;50.858;3.964;2022-10-16T13:57:38;2.85;;;0.98;;
18176;SDS011;9213;50.858;3.964;2022-10-16T14:00:17;5.07;;;1.00;;
18176;SDS011;9213;50.858;3.964;2022-10-16T14:02:49;3.13;;;1.15;;
18176;SDS011;9213;50.858;3.964;2022-10-16T14:05:19;5.57;;;1.00;;
18176;SDS011;9213;50.858;3.964;2022-10-16T14:07:48;2.95;;;1.38;;
18176;SDS011;9213;50.858;3.964;2022-10-16T14:10:20;2.95;;;1.20;;
18176;SDS011;9213;50.858;3.964;2022-10-16T14:12:54;2.08;;;1.10;;
18176;SDS011;9213;50.858;3.964;2022-10-16T14:15:23;1.70;;;1.27;;
18176;SDS011;9213;50.858;3.964;2022-10-16T14:17:51;2.30;;;1.20;;
18176;SDS011;9213;50.858;3.964;2022-10-16T14:20:20;3.10;;;1.20;;
18176;SDS011;9213;50.858;3.964;2022-10-16T14:22:57;3.42;;;1.00;;
18176;SDS011;9213;50.858;3.964;2022-10-16T14:25:27;2.05;;;1.10;;
18176;SDS011;9213;50.858;3.964;2022-10-16T14:28:00;3.97;;;1.10;;
18176;SDS011;9213;50.858;3.964;2022-10-16T14:30:30;8.93;;;1.55;;
18176;SDS011;9213;50.858;3.964;2022-10-16T14:33:00;12.52;;;1.80;;
18176;SDS011;9213;50.858;3.964;2022-10-16T14:35:29;4.82;;;1.38;;
18176;SDS011;9213;50.858;3.964;2022-10-16T14:37:57;4.03;;;1.17;;
18176;SDS011;9213;50.858;3.964;2022-10-16T14:40:27;7.47;;;1.27;;
18176;SDS011;9213;50.858;3.964;2022-10-16T14:42:55;8.68;;;1.40;;
18176;SDS011;9213;50.858;3.964;2022-10-16T14:45:23;4.28;;;1.60;;
18176;SDS011;9213;50.858;3.964;2022-10-16T14:47:55;4.20;;;1.20;;
18176;SDS011;9213;50.858;3.964;2022-10-16T14:50:23;3.85;;;1.17;;
18176;SDS011;9213;50.858;3.964;2022-10-16T14:52:50;5.13;;;1.85;;
18176;SDS011;9213;50.858;3.964;2022-10-16T14:55:17;4.38;;;1.30;;
18176;SDS011;9213;50.858;3.964;2022-10-16T14:57:45;8.00;;;1.58;;
18176;SDS011;9213;50.858;3.964;2022-10-16T15:00:14;7.88;;;1.90;;
18176;SDS011;9213;50.858;3.964;2022-10-16T15:02:43;4.65;;;1.38;;
18176;SDS011;9213;50.858;3.964;2022-10-16T15:05:13;8.85;;;1.85;;
18176;SDS011;9213;50.858;3.964;2022-10-16T15:07:42;3.33;;;1.17;;
18176;SDS011;9213;50.858;3.964;2022-10-16T15:10:09;6.32;;;1.52;;
18176;SDS011;9213;50.858;3.964;2022-10-16T15:12:36;3.00;;;1.20;;
18176;SDS011;9213;50.858;3.964;2022-10-16T15:15:10;2.25;;;1.50;;
18176;SDS011;9213;50.858;3.964;2022-10-16T15:17:49;3.47;;;1.33;;
18176;SDS011;9213;50.858;3.964;2022-10-16T15:20:19;4.45;;;1.55;;
18176;SDS011;9213;50.858;3.964;2022-10-16T15:22:46;2.78;;;1.65;;
18176;SDS011;9213;50.858;3.964;2022-10-16T15:25:15;4.57;;;1.50;;
18176;SDS011;9213;50.858;3.964;2022-10-16T15:27:56;4.28;;;1.70;;
18176;SDS011;9213;50.858;3.964;2022-10-16T15:30:22;4.55;;;1.27;;
18176;SDS011;9213;50.858;3.964;2022-10-16T15:32:49;4.20;;;1.40;;